Time;durP1;ratioP1;P1;durP2;ratioP2;P2;SDS_P1;SDS_P2;PMS_P1;PMS_P2;Temp;Humidity;BMP_temperature;BMP_pressure;BME280_temperature;BME280_humidity;BME280_pressure;Samples;Min_cycle;Max_cycle;Signal;HPM_P1;HPM_P2
2023/05/01 00:02:13;;;;;;;2.20;1.70;;;12.90;99.90;;;;;;5115997;28;20868;-62
2023/05/01 00:04:40;;;;;;;2.70;1.70;;;12.90;99.90;;;;;;5114756;28;20744;-62
2023/05/01 00:07:07;;;;;;;3.90;1.70;;;12.80;99.90;;;;;;5115795;28;20420;-62
2023/05/01 00:09:35;;;;;;;2.50;1.50;;;12.80;99.90;;;;;;5115297;28;20465;-63
2023/05/01 00:12:02;;;;;;;2.70;1.65;;;12.70;99.90;;;;;;5116891;28;20885;-61
2023/05/01 00:14:29;;;;;;;3.70;1.65;;;12.80;99.90;;;;;;5115654;28;20896;-62
2023/05/01 00:16:58;;;;;;;5.18;2.00;;;12.70;99.90;;;;;;5114371;28;20423;-62
2023/05/01 00:19:25;;;;;;;2.22;1.60;;;12.80;99.90;;;;;;5116438;28;20466;-62
2023/05/01 00:21:52;;;;;;;2.00;1.50;;;12.70;99.90;;;;;;5116562;28;20489;-62
2023/05/01 00:24:19;;;;;;;2.27;1.70;;;12.60;99.90;;;;;;5115708;28;20519;-63
2023/05/01 00:26:46;;;;;;;2.30;2.10;;;12.60;99.90;;;;;;5115108;28;20423;-62
2023/05/01 00:29:14;;;;;;;2.28;1.50;;;12.60;99.90;;;;;;5115315;28;20420;-62
2023/05/01 00:31:41;;;;;;;2.40;1.60;;;12.70;99.90;;;;;;5116070;28;20896;-62
2023/05/01 00:34:10;;;;;;;2.50;2.00;;;12.70;99.90;;;;;;5115502;28;20493;-53
2023/05/01 00:36:37;;;;;;;2.00;1.50;;;12.70;99.90;;;;;;5113773;28;20481;-52
2023/05/01 00:39:05;;;;;;;2.00;1.60;;;12.60;99.90;;;;;;5115512;28;20919;-50
2023/05/01 00:41:32;;;;;;;3.50;2.10;;;12.60;99.90;;;;;;5115784;28;20432;-53
2023/05/01 00:43:59;;;;;;;3.03;1.48;;;12.50;99.90;;;;;;5115016;28;20424;-52
2023/05/01 00:46:26;;;;;;;3.40;1.65;;;12.50;99.90;;;;;;5115369;28;20428;-51
2023/05/01 00:48:53;;;;;;;2.30;1.77;;;12.50;99.90;;;;;;5114874;28;20420;-51
2023/05/01 00:51:22;;;;;;;2.30;1.85;;;12.50;99.90;;;;;;5114681;28;20777;-53
2023/05/01 00:53:49;;;;;;;2.20;1.50;;;12.50;99.90;;;;;;5115635;28;20477;-54
2023/05/01 00:56:16;;;;;;;2.38;1.55;;;12.50;99.90;;;;;;5116127;28;20881;-52
2023/05/01 00:58:46;;;;;;;2.50;2.28;;;12.50;99.90;;;;;;5115498;28;20524;-53
2023/05/01 01:01:13;;;;;;;2.60;1.90;;;12.50;99.90;;;;;;5115102;28;20428;-51
2023/05/01 01:03:41;;;;;;;3.22;1.73;;;12.60;99.90;;;;;;5113815;28;20785;-49
2023/05/01 01:06:14;;;;;;;2.92;1.80;;;12.70;99.90;;;;;;5115289;28;20788;-53
2023/05/01 01:08:49;;;;;;;2.25;1.88;;;12.60;99.90;;;;;;5115840;28;20423;-52
2023/05/01 01:11:24;;;;;;;2.30;1.50;;;12.60;99.90;;;;;;5115187;28;20420;-54
2023/05/01 01:13:58;;;;;;;2.20;1.50;;;12.60;99.90;;;;;;5112286;28;20477;-53
2023/05/01 01:16:37;;;;;;;2.90;1.67;;;12.50;99.90;;;;;;5113569;28;20492;-53
2023/05/01 01:19:26;;;;;;;2.60;1.67;;;12.50;99.90;;;;;;5113566;28;20421;-54
2023/05/01 01:22:02;;;;;;;2.15;1.70;;;12.50;99.90;;;;;;5113143;28;20424;-52
2023/05/01 01:25:00;;;;;;;2.80;1.55;;;12.50;99.90;;;;;;5113358;28;20468;-50
2023/05/01 01:27:57;;;;;;;2.50;1.60;;;12.60;99.90;;;;;;5114227;28;20465;-50
2023/05/01 01:30:47;;;;;;;2.60;1.70;;;12.50;99.90;;;;;;5115407;28;20856;-54
2023/05/01 01:33:51;;;;;;;2.78;2.22;;;12.40;99.90;;;;;;5115433;28;20416;-53
2023/05/01 01:36:26;;;;;;;3.17;1.33;;;12.30;99.90;;;;;;5097758;28;20436;-54
2023/05/01 01:39:03;;;;;;;2.10;1.73;;;12.30;99.90;;;;;;5114802;28;20452;-55
2023/05/01 01:41:33;;;;;;;3.05;1.40;;;12.40;99.90;;;;;;5114552;28;20581;-52
2023/05/01 01:44:04;;;;;;;2.00;1.45;;;12.40;99.90;;;;;;5114901;28;20412;-54
2023/05/01 01:46:37;;;;;;;2.20;1.70;;;12.50;99.90;;;;;;5113725;28;20493;-54
2023/05/01 01:49:09;;;;;;;2.30;1.33;;;12.50;99.90;;;;;;5115685;28;20417;-50
2023/05/01 01:51:40;;;;;;;2.38;1.52;;;12.50;99.90;;;;;;5114809;28;20424;-51
2023/05/01 01:54:09;;;;;;;2.20;1.60;;;12.50;99.90;;;;;;5115363;28;20844;-52
2023/05/01 01:56:38;;;;;;;2.60;1.90;;;12.50;99.90;;;;;;5113222;28;20424;-50
2023/05/01 01:59:06;;;;;;;2.50;1.60;;;12.50;99.90;;;;;;5114168;28;20424;-51
2023/05/01 02:01:34;;;;;;;2.20;1.55;;;12.60;99.90;;;;;;5114424;28;20912;-51
2023/05/01 02:04:04;;;;;;;2.30;1.50;;;12.60;99.90;;;;;;5114920;28;20469;-52
2023/05/01 02:06:33;;;;;;;3.50;1.63;;;12.50;99.90;;;;;;5113169;28;20840;-55
2023/05/01 02:09:05;;;;;;;2.40;1.58;;;12.40;99.90;;;;;;5115537;28;20412;-54
2023/05/01 02:11:32;;;;;;;2.20;1.80;;;12.30;99.90;;;;;;5114381;28;20420;-52
2023/05/01 02:14:00;;;;;;;2.20;1.60;;;12.20;99.90;;;;;;5115396;28;20480;-54
2023/05/01 02:16:28;;;;;;;1.75;1.40;;;12.20;99.90;;;;;;5113537;28;20432;-51
2023/05/01 02:18:56;;;;;;;2.55;1.50;;;12.20;99.90;;;;;;5113973;28;20481;-54
2023/05/01 02:21:25;;;;;;;1.75;1.60;;;12.10;99.90;;;;;;5114476;28;20431;-51
2023/05/01 02:23:52;;;;;;;2.20;1.60;;;12.10;99.90;;;;;;5114837;28;20427;-51
2023/05/01 02:26:24;;;;;;;1.95;1.85;;;12.10;99.90;;;;;;5112740;28;20432;-52
2023/05/01 02:28:51;;;;;;;2.20;1.40;;;12.20;99.90;;;;;;5111853;28;20416;-57
2023/05/01 02:31:18;;;;;;;1.88;1.40;;;12.20;99.90;;;;;;5113167;28;20867;-52
2023/05/01 02:33:45;;;;;;;1.60;1.50;;;12.30;99.90;;;;;;5111969;28;20424;-51
2023/05/01 02:36:12;;;;;;;2.40;1.63;;;12.40;99.90;;;;;;5111937;28;20423;-51
2023/05/01 02:38:40;;;;;;;2.83;1.50;;;12.50;99.90;;;;;;5111770;28;20424;-51
2023/05/01 02:41:09;;;;;;;2.30;1.50;;;12.50;99.90;;;;;;5112657;28;20521;-50
2023/05/01 02:43:38;;;;;;;2.63;1.70;;;12.60;99.90;;;;;;5113673;28;20599;-52
2023/05/01 02:46:09;;;;;;;1.80;1.50;;;12.60;99.90;;;;;;5113550;28;20496;-50
2023/05/01 02:48:37;;;;;;;2.30;1.85;;;12.60;99.90;;;;;;5112529;28;20856;-51
2023/05/01 02:51:06;;;;;;;2.40;1.47;;;12.60;99.90;;;;;;5113623;28;20520;-53
2023/05/01 02:53:34;;;;;;;2.20;1.77;;;12.60;99.90;;;;;;5113878;28;20419;-53
2023/05/01 02:56:02;;;;;;;2.50;1.80;;;12.70;99.90;;;;;;5115110;28;20485;-53
2023/05/01 02:58:32;;;;;;;4.10;1.50;;;12.80;99.90;;;;;;5112664;28;20426;-52
2023/05/01 03:01:00;;;;;;;2.97;1.70;;;12.80;99.90;;;;;;5113291;28;20749;-51
2023/05/01 03:03:27;;;;;;;1.95;1.40;;;12.80;99.90;;;;;;5113382;28;20499;-55
2023/05/01 03:05:54;;;;;;;1.60;1.30;;;12.80;99.90;;;;;;5113106;28;20931;-55
2023/05/01 03:08:21;;;;;;;2.63;1.50;;;12.60;99.90;;;;;;5110974;28;20461;-53
2023/05/01 03:10:48;;;;;;;2.90;1.60;;;12.50;99.90;;;;;;5112180;28;20419;-53
2023/05/01 03:13:15;;;;;;;2.75;1.80;;;12.50;99.90;;;;;;5112256;28;20462;-51
2023/05/01 03:15:42;;;;;;;2.35;1.50;;;12.40;99.90;;;;;;5111674;28;20916;-53
2023/05/01 03:18:10;;;;;;;2.23;1.60;;;12.30;99.90;;;;;;5110897;28;20735;-52
2023/05/01 03:20:37;;;;;;;2.10;1.50;;;12.20;99.90;;;;;;5112895;28;20427;-55
2023/05/01 03:23:05;;;;;;;2.10;1.52;;;12.20;99.90;;;;;;5112043;28;20484;-48
2023/05/01 03:25:32;;;;;;;2.60;1.70;;;12.30;99.90;;;;;;5113915;28;20432;-51
2023/05/01 03:27:59;;;;;;;1.70;1.60;;;12.30;99.90;;;;;;5113625;28;20420;-48
2023/05/01 03:30:26;;;;;;;2.65;1.90;;;12.30;99.90;;;;;;5112729;28;20477;-54
2023/05/01 03:32:53;;;;;;;4.15;2.22;;;12.40;99.90;;;;;;5113881;28;20416;-53
2023/05/01 03:35:22;;;;;;;3.10;2.00;;;12.30;99.90;;;;;;5114267;28;20428;-54
2023/05/01 03:37:49;;;;;;;2.30;1.70;;;12.40;99.90;;;;;;5113623;28;20735;-53
2023/05/01 03:40:17;;;;;;;2.30;1.70;;;12.40;99.90;;;;;;5111437;28;20428;-54
2023/05/01 03:42:44;;;;;;;2.30;1.55;;;12.50;99.90;;;;;;5112340;28;20431;-54
2023/05/01 03:45:11;;;;;;;2.22;1.85;;;12.50;99.90;;;;;;5113246;28;20782;-53
2023/05/01 03:47:38;;;;;;;3.30;1.70;;;12.50;99.90;;;;;;5112719;28;20807;-51
2023/05/01 03:50:07;;;;;;;3.40;1.70;;;12.50;99.90;;;;;;5112948;28;20424;-51
2023/05/01 03:52:36;;;;;;;3.00;2.00;;;12.50;99.90;;;;;;5112292;28;20422;-51
2023/05/01 03:55:03;;;;;;;2.30;2.00;;;12.60;99.90;;;;;;5111709;28;20428;-52
2023/05/01 03:57:30;;;;;;;2.30;1.80;;;12.50;99.90;;;;;;5112215;28;20450;-53
2023/05/01 03:59:58;;;;;;;3.65;2.50;;;12.50;99.90;;;;;;5111383;28;20432;-51
2023/05/01 04:02:25;;;;;;;2.95;2.22;;;12.60;99.90;;;;;;5111239;28;20424;-52
2023/05/01 04:04:52;;;;;;;2.92;2.20;;;12.70;99.90;;;;;;5114948;28;20824;-53
2023/05/01 04:07:19;;;;;;;2.40;1.90;;;12.50;99.90;;;;;;5115267;28;20473;-52
2023/05/01 04:09:48;;;;;;;2.20;2.00;;;12.50;99.90;;;;;;5116869;28;20428;-54
2023/05/01 04:12:15;;;;;;;2.13;1.70;;;12.60;99.90;;;;;;5117184;28;20404;-51
2023/05/01 04:14:43;;;;;;;2.25;1.85;;;12.60;99.90;;;;;;5117131;28;20573;-54
2023/05/01 04:17:10;;;;;;;2.70;1.90;;;12.60;99.90;;;;;;5116421;28;20824;-51
2023/05/01 04:19:37;;;;;;;1.60;1.30;;;12.70;99.90;;;;;;5115789;28;20904;-54
2023/05/01 04:22:04;;;;;;;2.27;1.70;;;12.70;99.90;;;;;;5115894;28;20803;-54
2023/05/01 04:24:31;;;;;;;2.05;1.65;;;12.70;99.90;;;;;;5116056;28;20416;-53
2023/05/01 04:26:59;;;;;;;2.20;2.00;;;12.80;99.90;;;;;;5117112;28;20424;-55
2023/05/01 04:29:26;;;;;;;1.85;1.60;;;12.70;99.90;;;;;;5116377;28;20842;-53
2023/05/01 04:31:53;;;;;;;2.67;2.00;;;12.60;99.90;;;;;;5117002;28;20858;-55
2023/05/01 04:34:20;;;;;;;2.20;2.00;;;12.50;99.90;;;;;;5117121;28;20420;-53
2023/05/01 04:36:47;;;;;;;1.80;1.60;;;12.50;99.90;;;;;;5116379;28;20424;-54
2023/05/01 04:39:15;;;;;;;2.03;1.50;;;12.40;99.90;;;;;;5116574;28;20469;-55
2023/05/01 04:41:42;;;;;;;4.07;2.30;;;12.40;99.90;;;;;;5116176;28;20424;-54
2023/05/01 04:44:10;;;;;;;2.42;1.70;;;12.50;99.90;;;;;;5116569;28;20420;-52
2023/05/01 04:46:37;;;;;;;3.03;1.83;;;12.50;99.90;;;;;;5116492;28;20424;-55
2023/05/01 04:49:04;;;;;;;2.00;1.60;;;12.70;99.90;;;;;;5116485;28;20473;-52
2023/05/01 04:51:31;;;;;;;3.90;2.22;;;12.70;99.90;;;;;;5115886;28;20484;-53
2023/05/01 04:53:58;;;;;;;3.60;1.60;;;12.70;99.90;;;;;;5115458;28;20474;-48
2023/05/01 04:56:26;;;;;;;2.10;1.58;;;12.60;99.90;;;;;;5115006;28;20424;-55
2023/05/01 04:58:53;;;;;;;2.92;2.10;;;12.70;99.90;;;;;;5116361;28;20415;-55
2023/05/01 05:01:21;;;;;;;2.00;1.70;;;12.80;99.90;;;;;;5115827;28;20431;-54
2023/05/01 05:03:48;;;;;;;2.80;1.90;;;12.70;99.90;;;;;;5116229;28;20424;-53
2023/05/01 05:06:15;;;;;;;2.40;1.60;;;12.60;99.90;;;;;;5116355;28;20428;-55
2023/05/01 05:08:42;;;;;;;2.40;1.80;;;12.60;99.90;;;;;;5116721;28;20419;-53
2023/05/01 05:11:09;;;;;;;2.65;1.85;;;12.60;99.90;;;;;;5115728;28;20523;-54
2023/05/01 05:13:36;;;;;;;2.00;1.70;;;12.50;99.90;;;;;;5115049;28;20412;-56
2023/05/01 05:16:04;;;;;;;2.60;1.60;;;12.50;99.90;;;;;;5114741;28;20424;-53
2023/05/01 05:18:32;;;;;;;3.30;1.80;;;12.50;99.90;;;;;;5115971;28;20428;-55
2023/05/01 05:21:02;;;;;;;1.95;1.70;;;12.50;99.90;;;;;;5116030;28;20416;-51
2023/05/01 05:23:29;;;;;;;2.67;2.05;;;12.60;99.90;;;;;;5114701;28;20455;-53
2023/05/01 05:25:57;;;;;;;2.60;2.00;;;12.60;99.90;;;;;;5116187;28;20430;-52
2023/05/01 05:28:24;;;;;;;3.10;1.70;;;12.60;99.90;;;;;;5114994;28;20899;-51
2023/05/01 05:30:51;;;;;;;2.05;1.85;;;12.50;99.90;;;;;;5114350;28;20424;-53
2023/05/01 05:33:18;;;;;;;2.70;1.80;;;12.60;99.90;;;;;;5114123;28;20419;-52
2023/05/01 05:35:47;;;;;;;3.00;2.05;;;12.70;99.90;;;;;;5113001;28;20503;-51
2023/05/01 05:38:14;;;;;;;2.72;1.80;;;12.70;99.90;;;;;;5114416;28;20426;-54
2023/05/01 05:40:41;;;;;;;2.92;1.80;;;12.70;99.90;;;;;;5114447;28;20780;-53
2023/05/01 05:43:09;;;;;;;2.50;2.10;;;12.80;99.90;;;;;;5114400;28;20423;-54
2023/05/01 05:45:36;;;;;;;3.08;2.58;;;12.60;99.90;;;;;;5114123;28;20771;-53
2023/05/01 05:48:03;;;;;;;2.30;1.80;;;12.30;99.90;;;;;;5114974;28;20420;-52
2023/05/01 05:50:30;;;;;;;5.03;2.88;;;12.10;99.90;;;;;;5114420;28;20428;-53
2023/05/01 05:52:59;;;;;;;2.90;2.60;;;12.10;99.90;;;;;;5115540;28;20465;-52
2023/05/01 05:55:26;;;;;;;2.30;2.08;;;12.10;99.90;;;;;;5114429;28;20485;-53
2023/05/01 05:57:53;;;;;;;2.80;2.00;;;12.10;99.90;;;;;;5115228;28;20760;-53
2023/05/01 06:00:21;;;;;;;3.00;2.40;;;12.10;99.90;;;;;;5114436;28;20436;-47
2023/05/01 06:02:48;;;;;;;2.30;1.80;;;12.10;99.90;;;;;;5114482;28;20428;-52
2023/05/01 06:05:14;;;;;;;2.60;2.00;;;12.00;99.90;;;;;;5114345;28;20768;-51
2023/05/01 06:07:42;;;;;;;3.03;2.53;;;12.10;99.90;;;;;;5113610;28;20474;-52
2023/05/01 06:10:11;;;;;;;3.20;2.00;;;12.00;99.90;;;;;;5113676;28;20424;-54
2023/05/01 06:12:38;;;;;;;3.00;2.00;;;12.10;99.90;;;;;;5113703;28;20423;-54
2023/05/01 06:15:06;;;;;;;2.70;1.90;;;12.20;99.90;;;;;;5113274;28;20523;-53
2023/05/01 06:17:34;;;;;;;2.40;1.90;;;12.30;99.90;;;;;;5114359;28;21006;-52
2023/05/01 06:20:04;;;;;;;2.63;2.20;;;12.40;99.90;;;;;;5113437;28;20424;-54
2023/05/01 06:22:31;;;;;;;2.45;1.80;;;12.40;99.90;;;;;;5114122;28;20432;-51
2023/05/01 06:24:58;;;;;;;2.65;1.80;;;12.50;99.90;;;;;;5113507;28;20473;-53
2023/05/01 06:27:27;;;;;;;2.17;1.88;;;12.60;99.90;;;;;;5113345;28;20480;-51
2023/05/01 06:29:54;;;;;;;3.30;1.80;;;12.60;99.90;;;;;;5113764;28;20435;-54
2023/05/01 06:32:22;;;;;;;2.10;1.85;;;12.80;99.90;;;;;;5113031;28;20412;-53
2023/05/01 06:34:49;;;;;;;3.30;2.33;;;12.90;99.90;;;;;;5111597;28;20432;-52
2023/05/01 06:37:16;;;;;;;2.65;2.20;;;13.00;99.90;;;;;;5113060;28;20446;-55
2023/05/01 06:39:43;;;;;;;2.80;1.77;;;13.00;99.90;;;;;;5113156;28;20428;-52
2023/05/01 06:42:14;;;;;;;2.28;1.73;;;12.90;99.90;;;;;;5112421;28;20432;-50
2023/05/01 06:44:43;;;;;;;2.10;1.45;;;12.90;99.90;;;;;;5109681;28;20481;-54
2023/05/01 06:47:10;;;;;;;1.60;1.30;;;12.90;99.90;;;;;;5109875;28;20427;-52
2023/05/01 06:49:37;;;;;;;1.90;1.50;;;13.00;99.90;;;;;;5110987;28;20428;-53
2023/05/01 06:52:04;;;;;;;2.75;1.98;;;13.00;99.90;;;;;;5109375;28;20451;-52
2023/05/01 06:54:31;;;;;;;2.40;1.50;;;13.00;99.90;;;;;;5111279;28;20416;-51
2023/05/01 06:56:58;;;;;;;2.60;1.40;;;12.80;99.90;;;;;;5110861;28;20692;-53
2023/05/01 06:59:25;;;;;;;3.70;1.50;;;12.80;99.90;;;;;;5109481;28;20776;-51
2023/05/01 07:01:54;;;;;;;2.28;1.60;;;12.80;99.90;;;;;;5110981;28;20505;-55
2023/05/01 07:04:22;;;;;;;2.40;1.70;;;12.80;99.90;;;;;;5112942;28;20412;-55
2023/05/01 07:06:49;;;;;;;1.88;1.40;;;12.70;99.90;;;;;;5112335;28;20715;-51
2023/05/01 07:09:16;;;;;;;1.70;1.30;;;12.80;99.90;;;;;;5112343;28;20416;-54
2023/05/01 07:11:43;;;;;;;2.40;1.70;;;12.90;99.90;;;;;;5110499;28;20416;-50
2023/05/01 07:14:10;;;;;;;3.00;1.60;;;13.10;99.90;;;;;;5110540;28;20723;-52
2023/05/01 07:16:37;;;;;;;1.80;1.40;;;13.30;99.90;;;;;;5108590;28;20460;-53
2023/05/01 07:19:06;;;;;;;1.80;1.50;;;13.40;99.90;;;;;;5111027;28;20450;-52
2023/05/01 07:21:33;;;;;;;2.20;1.70;;;13.30;99.90;;;;;;5110391;28;20763;-53
2023/05/01 07:24:00;;;;;;;2.30;1.40;;;13.20;99.90;;;;;;5109830;28;20731;-51
2023/05/01 07:26:27;;;;;;;1.70;1.50;;;13.20;99.90;;;;;;5109883;28;20416;-52
2023/05/01 07:28:54;;;;;;;1.98;1.50;;;13.30;99.90;;;;;;5110394;28;20769;-51
2023/05/01 07:31:21;;;;;;;2.42;1.40;;;13.20;99.90;;;;;;5111321;28;20855;-53
2023/05/01 07:33:48;;;;;;;2.42;1.45;;;13.00;99.90;;;;;;5109674;28;20416;-55
2023/05/01 07:36:19;;;;;;;1.98;1.77;;;12.80;99.90;;;;;;5108976;28;20497;-52
2023/05/01 07:38:46;;;;;;;2.10;1.40;;;12.80;99.90;;;;;;5110824;28;20424;-53
2023/05/01 07:41:13;;;;;;;1.90;1.40;;;12.90;99.90;;;;;;5112817;28;20436;-53
2023/05/01 07:43:40;;;;;;;2.05;1.40;;;13.00;99.90;;;;;;5113485;28;20485;-52
2023/05/01 07:46:07;;;;;;;1.70;1.40;;;13.10;99.90;;;;;;5114141;28;20420;-49
2023/05/01 07:48:34;;;;;;;2.40;1.83;;;13.30;99.90;;;;;;5113855;28;20915;-53
2023/05/01 07:51:03;;;;;;;1.90;1.60;;;13.40;99.90;;;;;;5115440;28;20435;-52
2023/05/01 07:53:31;;;;;;;1.80;1.40;;;13.60;99.90;;;;;;5113734;28;20547;-55
2023/05/01 07:56:06;;;;;;;2.03;1.50;;;13.60;99.90;;;;;;5113884;28;20523;-54
2023/05/01 07:58:33;;;;;;;2.50;1.80;;;13.50;99.90;;;;;;5112542;28;20789;-53
2023/05/01 08:01:00;;;;;;;1.70;1.40;;;13.40;99.90;;;;;;5113949;28;20472;-52
2023/05/01 08:03:28;;;;;;;2.83;1.67;;;13.40;99.90;;;;;;5114738;28;20424;-49
2023/05/01 08:05:55;;;;;;;1.80;1.40;;;13.50;99.90;;;;;;5114988;28;20561;-52
2023/05/01 08:08:22;;;;;;;2.10;1.42;;;13.50;99.90;;;;;;5114134;28;20863;-53
2023/05/01 08:10:51;;;;;;;2.55;1.48;;;13.70;99.90;;;;;;5113621;28;20978;-50
2023/05/01 08:13:18;;;;;;;2.10;1.70;;;13.60;99.90;;;;;;5115339;28;20528;-54
2023/05/01 08:15:46;;;;;;;1.70;1.50;;;13.60;99.90;;;;;;5114927;28;20428;-50
2023/05/01 08:18:19;;;;;;;2.10;1.52;;;13.70;99.90;;;;;;5113442;28;20446;-54
2023/05/01 08:20:46;;;;;;;2.45;1.60;;;13.70;99.90;;;;;;5111448;28;20839;-51
2023/05/01 08:23:14;;;;;;;2.60;1.70;;;13.60;99.90;;;;;;5113775;28;20734;-52
2023/05/01 08:25:41;;;;;;;1.60;1.50;;;13.50;99.90;;;;;;5113781;28;20856;-53
2023/05/01 08:28:09;;;;;;;1.83;1.45;;;13.70;99.90;;;;;;5113771;28;20832;-53
2023/05/01 08:30:36;;;;;;;2.00;1.80;;;13.90;99.90;;;;;;5113860;28;20477;-51
2023/05/01 08:33:03;;;;;;;2.20;1.60;;;14.00;99.90;;;;;;5114227;28;20427;-51
2023/05/01 08:35:30;;;;;;;1.90;1.48;;;14.30;99.90;;;;;;5114919;28;21015;-55
2023/05/01 08:37:57;;;;;;;1.80;1.42;;;14.40;99.90;;;;;;5115428;28;20477;-55
2023/05/01 08:40:26;;;;;;;2.70;1.50;;;14.60;99.90;;;;;;5114050;28;20430;-53
2023/05/01 08:42:54;;;;;;;2.75;1.65;;;14.60;99.90;;;;;;5113633;28;20424;-54
2023/05/01 08:45:25;;;;;;;2.20;1.30;;;14.60;99.90;;;;;;5111318;28;20800;-55
2023/05/01 08:47:54;;;;;;;1.60;1.30;;;14.70;99.90;;;;;;5113731;28;20462;-51
2023/05/01 08:50:22;;;;;;;2.00;1.40;;;14.90;99.90;;;;;;5112435;28;20523;-52
2023/05/01 08:52:53;;;;;;;1.73;1.40;;;15.10;99.90;;;;;;5096310;28;20503;-51
2023/05/01 08:55:20;;;;;;;3.55;1.50;;;15.20;99.90;;;;;;5113694;28;20433;-49
2023/05/01 08:57:49;;;;;;;1.70;1.40;;;15.00;99.90;;;;;;5097890;28;20430;-51
2023/05/01 09:00:19;;;;;;;2.40;1.50;;;15.10;99.90;;;;;;5092306;28;20472;-53
2023/05/01 09:02:49;;;;;;;1.85;1.50;;;15.20;99.90;;;;;;5091284;28;20460;-51
2023/05/01 09:05:17;;;;;;;2.20;1.50;;;15.40;99.90;;;;;;5090310;28;20429;-49
2023/05/01 09:07:45;;;;;;;3.08;1.20;;;15.30;99.90;;;;;;5091633;28;20443;-53
2023/05/01 09:10:13;;;;;;;1.60;1.50;;;15.60;99.90;;;;;;5093360;28;20872;-53
2023/05/01 09:12:43;;;;;;;1.70;1.30;;;15.90;99.90;;;;;;5092557;28;20429;-53
2023/05/01 09:15:12;;;;;;;1.90;1.20;;;16.10;99.90;;;;;;5094469;28;20433;-53
2023/05/01 09:17:39;;;;;;;2.00;1.20;;;16.30;99.90;;;;;;5095354;28;20784;-52
2023/05/01 09:20:10;;;;;;;1.80;1.20;;;16.30;99.90;;;;;;5091554;28;20482;-52
2023/05/01 09:22:37;;;;;;;1.70;1.40;;;16.30;99.90;;;;;;5091095;28;20467;-50
2023/05/01 09:25:05;;;;;;;1.75;1.23;;;16.10;99.90;;;;;;5092451;28;20521;-53
2023/05/01 09:27:35;;;;;;;1.42;1.13;;;16.20;99.90;;;;;;5093004;28;21034;-53
2023/05/01 09:30:02;;;;;;;1.80;1.10;;;16.30;99.90;;;;;;5093523;28;20428;-50
2023/05/01 09:32:29;;;;;;;1.40;1.20;;;16.20;99.90;;;;;;5092307;28;20726;-53
2023/05/01 09:35:09;;;;;;;2.00;1.30;;;16.20;99.90;;;;;;5092969;28;20418;-52
2023/05/01 09:37:37;;;;;;;1.40;1.20;;;16.30;99.90;;;;;;5095341;28;20438;-54
2023/05/01 09:40:07;;;;;;;1.40;1.20;;;16.50;99.90;;;;;;5109420;28;20442;-52
2023/05/01 09:42:36;;;;;;;1.60;1.10;;;16.90;99.90;;;;;;5108867;28;20435;-52
2023/05/01 09:45:05;;;;;;;2.00;1.30;;;17.30;99.90;;;;;;5102794;28;20439;-52
2023/05/01 09:47:33;;;;;;;2.20;1.60;;;17.80;99.90;;;;;;5113745;28;20427;-51
2023/05/01 09:50:00;;;;;;;2.10;1.50;;;17.60;99.90;;;;;;5113332;28;20523;-55
2023/05/01 09:52:28;;;;;;;1.75;1.52;;;17.50;99.90;;;;;;5115277;28;20424;-55
2023/05/01 09:55:16;;;;;;;1.67;1.48;;;17.50;99.90;;;;;;5114379;28;20822;-54
2023/05/01 09:57:44;;;;;;;1.80;1.60;;;17.30;99.90;;;;;;5114624;28;20420;-53
2023/05/01 10:00:12;;;;;;;2.25;1.55;;;17.40;99.90;;;;;;5113490;28;20766;-55
2023/05/01 10:02:41;;;;;;;2.00;1.80;;;17.30;99.90;;;;;;5114546;28;20432;-54
2023/05/01 10:05:10;;;;;;;2.20;2.00;;;17.30;99.90;;;;;;5113791;28;20873;-50
2023/05/01 10:07:38;;;;;;;2.40;1.80;;;17.40;99.90;;;;;;5113980;28;20896;-52
2023/05/01 10:10:19;;;;;;;2.00;1.80;;;17.40;99.90;;;;;;5113702;28;20428;-54
2023/05/01 10:12:47;;;;;;;1.90;1.33;;;17.10;99.90;;;;;;5113906;28;20815;-53
2023/05/01 10:15:15;;;;;;;2.40;2.00;;;17.00;99.90;;;;;;5113823;28;20897;-53
2023/05/01 10:17:43;;;;;;;2.40;2.00;;;17.10;99.90;;;;;;5114532;28;20798;-53
2023/05/01 10:20:12;;;;;;;3.40;2.33;;;16.90;99.90;;;;;;5113071;28;20545;-55
2023/05/01 10:22:40;;;;;;;2.10;1.80;;;16.80;99.90;;;;;;5109923;28;20872;-53
2023/05/01 10:25:09;;;;;;;2.90;1.50;;;16.90;99.90;;;;;;5093949;28;20429;-55
2023/05/01 10:27:40;;;;;;;2.10;1.90;;;17.20;99.90;;;;;;5093475;28;20421;-55
2023/05/01 10:30:08;;;;;;;2.28;1.52;;;17.60;99.90;;;;;;5093080;28;20529;-53
2023/05/01 10:32:37;;;;;;;2.10;1.85;;;17.80;99.90;;;;;;5092817;28;20453;-55
2023/05/01 10:35:11;;;;;;;2.10;1.90;;;17.90;99.90;;;;;;5094280;28;20482;-52
2023/05/01 10:37:45;;;;;;;3.30;1.50;;;18.00;99.90;;;;;;5093308;28;20429;-53
2023/05/01 10:40:44;;;;;;;2.77;1.80;;;18.00;99.90;;;;;;5093173;28;20425;-54
2023/05/01 10:43:17;;;;;;;2.50;1.60;;;18.20;99.90;;;;;;5092602;28;20467;-53
2023/05/01 10:45:45;;;;;;;2.60;1.60;;;18.20;99.90;;;;;;5093228;28;20426;-56
2023/05/01 10:48:12;;;;;;;1.80;1.38;;;18.30;99.90;;;;;;5092994;28;20509;-55
2023/05/01 10:51:10;;;;;;;2.20;1.50;;;18.70;99.90;;;;;;5092287;28;20429;-55
2023/05/01 10:53:38;;;;;;;1.70;1.30;;;18.80;99.90;;;;;;5088970;28;20441;-54
2023/05/01 10:56:06;;;;;;;2.00;1.52;;;19.00;99.90;;;;;;5089266;28;20466;-55
2023/05/01 10:58:57;;;;;;;2.70;1.60;;;19.00;99.90;;;;;;5088824;28;20516;-53
2023/05/01 11:01:29;;;;;;;3.15;1.92;;;18.70;99.90;;;;;;5089818;28;20453;-54
2023/05/01 11:03:56;;;;;;;2.28;1.90;;;18.70;99.90;;;;;;5092482;28;20861;-53
2023/05/01 11:06:23;;;;;;;2.70;1.70;;;18.60;99.90;;;;;;5092301;28;20798;-55
2023/05/01 11:08:50;;;;;;;2.60;2.00;;;18.20;99.90;;;;;;5091785;28;20460;-55
2023/05/01 11:11:46;;;;;;;2.08;1.42;;;18.30;99.90;;;;;;5092481;28;20426;-54
2023/05/01 11:14:15;;;;;;;2.10;1.90;;;18.30;99.90;;;;;;5093789;28;20413;-53
2023/05/01 11:16:47;;;;;;;2.30;1.60;;;18.20;99.90;;;;;;5098508;28;20420;-50
2023/05/01 11:19:47;;;;;;;2.47;2.10;;;18.10;99.90;;;;;;5115747;28;20419;-52
2023/05/01 11:22:14;;;;;;;2.30;2.10;;;18.10;99.90;;;;;;5115113;28;20514;-51
2023/05/01 11:24:41;;;;;;;2.40;2.20;;;18.10;99.90;;;;;;5116164;28;20489;-54
2023/05/01 11:27:12;;;;;;;2.53;1.60;;;18.00;99.90;;;;;;5115269;28;20423;-52
2023/05/01 11:29:44;;;;;;;2.25;2.00;;;18.00;99.90;;;;;;5114979;28;20508;-53
2023/05/01 11:32:18;;;;;;;2.50;1.90;;;18.10;99.90;;;;;;5115362;28;20411;-51
2023/05/01 11:34:46;;;;;;;2.67;2.10;;;18.20;99.90;;;;;;5115470;28;20420;-55
2023/05/01 11:37:14;;;;;;;2.80;2.50;;;18.20;99.90;;;;;;5114952;28;20552;-53
2023/05/01 11:39:50;;;;;;;2.90;2.53;;;18.30;99.90;;;;;;5114024;28;20836;-55
2023/05/01 11:42:21;;;;;;;2.55;2.10;;;18.40;99.90;;;;;;5113085;28;20427;-54
2023/05/01 11:45:09;;;;;;;2.40;1.98;;;18.50;99.90;;;;;;5114039;28;20522;-54
2023/05/01 11:47:37;;;;;;;2.50;2.10;;;18.10;99.90;;;;;;5114143;28;20503;-54
2023/05/01 11:50:04;;;;;;;2.92;2.00;;;17.80;99.90;;;;;;5115702;28;20428;-53
2023/05/01 11:52:42;;;;;;;3.10;2.50;;;17.70;99.90;;;;;;5113673;28;20416;-54
2023/05/01 11:55:10;;;;;;;2.25;1.70;;;17.60;99.90;;;;;;5113423;28;20420;-50
2023/05/01 11:57:48;;;;;;;2.90;1.60;;;17.70;99.90;;;;;;5114030;28;20420;-54
2023/05/01 12:00:27;;;;;;;2.45;1.83;;;17.80;99.90;;;;;;5114833;28;20474;-55
2023/05/01 12:02:58;;;;;;;2.30;1.90;;;18.00;99.90;;;;;;5112096;28;20404;-54
2023/05/01 12:05:26;;;;;;;3.00;2.00;;;18.10;99.90;;;;;;5113903;28;20485;-54
2023/05/01 12:08:07;;;;;;;1.98;1.70;;;18.30;99.90;;;;;;5113715;28;20443;-49
2023/05/01 12:10:35;;;;;;;2.80;1.90;;;18.40;99.90;;;;;;5114562;28;20603;-55
2023/05/01 12:13:02;;;;;;;2.42;1.60;;;18.40;99.90;;;;;;5115224;28;20688;-50
2023/05/01 12:15:31;;;;;;;2.20;1.50;;;18.50;99.90;;;;;;5114226;28;20432;-55
2023/05/01 12:17:59;;;;;;;2.70;1.80;;;18.50;99.90;;;;;;5110772;28;20517;-52
2023/05/01 12:20:38;;;;;;;2.20;1.50;;;18.50;99.90;;;;;;5114556;28;20840;-52
2023/05/01 12:23:07;;;;;;;2.00;1.80;;;18.30;99.90;;;;;;5115585;28;20419;-53
2023/05/01 12:25:34;;;;;;;1.60;1.40;;;18.20;99.90;;;;;;5114098;28;20471;-53
2023/05/01 12:28:03;;;;;;;1.50;1.30;;;18.10;99.90;;;;;;5114009;28;20455;-55
2023/05/01 12:30:32;;;;;;;1.80;1.50;;;18.10;99.90;;;;;;5113888;28;20427;-54
2023/05/01 12:32:59;;;;;;;2.08;1.40;;;18.40;99.90;;;;;;5113399;28;20488;-53
2023/05/01 12:35:30;;;;;;;2.00;1.63;;;18.70;99.90;;;;;;5114019;28;20423;-53
2023/05/01 12:37:58;;;;;;;2.90;1.60;;;19.00;99.90;;;;;;5113547;28;20423;-52
2023/05/01 12:40:26;;;;;;;2.60;1.80;;;19.20;99.90;;;;;;5112405;28;20530;-54
2023/05/01 12:42:56;;;;;;;2.22;1.92;;;19.20;99.90;;;;;;5114133;28;20425;-53
2023/05/01 12:45:24;;;;;;;2.30;1.70;;;18.70;99.90;;;;;;5115320;28;20532;-51
2023/05/01 12:47:52;;;;;;;1.80;1.40;;;18.70;99.90;;;;;;5114111;28;20480;-52
2023/05/01 12:50:20;;;;;;;1.90;1.50;;;18.80;99.90;;;;;;5114988;28;20424;-51
2023/05/01 12:52:48;;;;;;;2.75;1.50;;;18.80;99.90;;;;;;5113069;28;20837;-49
2023/05/01 12:55:16;;;;;;;2.22;1.60;;;18.70;99.90;;;;;;5110095;28;20467;-55
2023/05/01 12:57:53;;;;;;;1.80;1.60;;;18.70;99.90;;;;;;5111805;28;20419;-54
2023/05/01 13:00:21;;;;;;;1.90;1.50;;;18.40;99.90;;;;;;5113609;28;20477;-55